GOOY/DKR METAR and TAF weather

Enter ICAO airport designator
Station Type Date Time Source
GOOY METAR 2022/09/26 09:00 UTC NOAA

GOOY 260900Z 16004KT 8000 SCT016TCU 28/26 Q1010


Station Type Date Time Source
GOOY Decoded METAR 2022/09/26 09:00 UTC NOAA

Dakar / Yoff, Senegal (GOOY) 14-44N 017-30W 24M
Sep 26, 2022 - 05:00 AM EDT / 2022.09.26 0900 UTC
Wind: from the SSE (160 degrees) at 5 MPH (4 KT):0
Visibility: 4 mile(s):0
Sky conditions: partly cloudy
Weather: Towering cumulus clouds observed
Temperature: 82 F (28 C)
Dew Point: 78 F (26 C)
Relative Humidity: 88%
Pressure (altimeter): 29.83 in. Hg (1010 hPa)
ob: GOOY 260900Z 16004KT 8000 SCT016TCU 28/26 Q1010
cycle: 9

Station Type Date Time Source
GOOY TAF 2022/09/26 06:42 UTC NOAA

TAF GOOY 260500Z 2606/2712 18008KT 9999 SCT013
TEMPO 2616/2622 3000 TSRA BKN010 FEW020CB

Example: see airport list